Pays
Station

 

Conditions  météo  pour  Battle Creek, Kellogg Airport  -  Etats-Unis    Etats-Unis

  
14 °C
    
 
 

METAR pour Battle Creek, Kellogg Airport :

KBTL 202311Z 30011G21KT 3SM RA BR FEW010 BKN033 OVC050 14/13 A2998 RMK AO2 PK WND 29028/2259 WSHFT 2253 PRESRR P0018 T01440128

 

Voici le bulletin pour Battle Creek, Kellogg Airport - Etats-Unis.
 
Le bulletin a été fait il y a 12 minutes, à 23:11 UTC .
Le vent soufflait à la vitesse de 5.7 mètres par seconde avec des rafales jusqu'à 10.8 mètres par seconde de Ouest/Nord-ouest (300°).
 
La température était de 14 °C, avec un point de rosée à 13 °C.
La pression atmosphérique était de 1015 hPa.
L'humidité relative était de 93.7%.
 
Il y avait 1 à 2/8ème de nébulosité à une hauteur de 305 mètres et 5 à 7/8ème de nébulosité à une hauteur de 1006 mètres. Le ciel était nuageux à partir d'une hauteur de 1524 mètres
 
La visibilité globale était de 4828 mètres.
 
Actuellement moderé(e) pluie plus brume.

 
 
 

Pays :   A   B   C   D   E   F   G   H   I   J   K   L   M   N   O   P   Q   R   S   T   U   V   W   Y   Z

 

Partenaires :  Info Météo avec Met'info
Météo Marine avec MeteoMarine.net
Infos Site  |  Infos Légales  |  Crédits  |  Confidentialité
Contactez-nous  |  Ajouter aux favoris
© 2013-2018 METAR - Tous droits réservés